Time,TemperatureF,DewpointF,PressureIn,WindDirection,WindDirectionDegrees,WindSpeedMPH,WindSpeedGustMPH,Humidity,HourlyPrecipIn,Conditions,Clouds,dailyrainin,SoftwareType,DateUTC
2017-05-23 00:02:00,56.7,46.6,29.98,SW,234,0.0,0.0,69,0.00,,,0.01,meteohub,2017-05-23 04:02:00,
2017-05-23 00:07:00,56.7,46.6,29.98,SW,234,0.0,0.0,69,0.00,,,0.00,meteohub,2017-05-23 04:07:00,
2017-05-23 00:17:00,56.5,46.8,29.98,SW,234,0.0,0.0,70,0.00,,,0.00,meteohub,2017-05-23 04:17:00,
2017-05-23 00:22:00,56.1,47.3,29.98,SW,234,0.0,0.0,72,0.00,,,0.00,meteohub,2017-05-23 04:22:00,
2017-05-23 00:27:00,56.1,46.8,29.98,SW,234,0.0,0.0,71,0.00,,,0.00,meteohub,2017-05-23 04:27:00,
2017-05-23 00:32:00,55.9,46.8,29.98,SW,234,0.0,0.0,71,0.00,,,0.00,meteohub,2017-05-23 04:32:00,
2017-05-23 00:37:00,55.8,46.6,29.98,SW,234,0.0,0.0,71,0.00,,,0.00,meteohub,2017-05-23 04:37:00,
2017-05-23 00:42:00,55.6,46.0,29.98,SW,234,0.0,0.0,70,0.00,,,0.00,meteohub,2017-05-23 04:42:00,
2017-05-23 00:44:00,55.6,46.0,29.98,SW,234,0.0,0.0,70,0.00,,,0.00,meteohub,2017-05-23 04:44:00,
2017-05-23 00:49:00,55.6,46.4,29.98,SW,234,0.0,0.0,71,0.00,,,0.00,meteohub,2017-05-23 04:49:00,
2017-05-23 00:54:00,55.8,46.0,29.98,SSE,167,0.0,0.0,70,0.00,,,0.00,meteohub,2017-05-23 04:54:00,
2017-05-23 00:59:00,55.9,46.2,29.97,SSE,167,0.0,0.0,70,0.00,,,0.00,meteohub,2017-05-23 04:59:00,
2017-05-23 01:04:00,56.1,46.0,29.97,SSE,167,0.0,3.0,69,0.00,,,0.00,meteohub,2017-05-23 05:04:00,
2017-05-23 01:09:00,56.3,45.9,29.97,SSE,167,0.0,3.0,68,0.00,,,0.00,meteohub,2017-05-23 05:09:00,
2017-05-23 01:15:00,56.5,46.0,29.98,SSE,167,0.0,0.0,68,0.00,,,0.00,meteohub,2017-05-23 05:15:00,
2017-05-23 01:20:00,56.5,46.0,29.98,SSE,167,0.0,0.0,68,0.00,,,0.00,meteohub,2017-05-23 05:20:00,
2017-05-23 01:25:00,56.5,46.4,29.97,SSE,167,0.0,0.0,69,0.00,,,0.00,meteohub,2017-05-23 05:25:00,
2017-05-23 01:30:00,56.5,46.4,29.97,SSE,167,0.0,0.0,69,0.00,,,0.00,meteohub,2017-05-23 05:30:00,
2017-05-23 01:35:00,56.3,46.2,29.97,SSE,167,0.0,0.0,69,0.00,,,0.00,meteohub,2017-05-23 05:35:00,
2017-05-23 01:40:00,56.1,46.4,29.97,SSE,167,0.0,0.0,70,0.00,,,0.00,meteohub,2017-05-23 05:40:00,
2017-05-23 01:46:00,56.1,46.4,29.96,SSE,167,0.0,0.0,70,0.00,,,0.00,meteohub,2017-05-23 05:46:00,
2017-05-23 01:51:00,56.1,46.4,29.96,SSE,167,0.0,0.0,70,0.00,,,0.00,meteohub,2017-05-23 05:51:00,
2017-05-23 01:56:00,56.1,46.4,29.96,SSE,167,0.0,0.0,70,0.00,,,0.00,meteohub,2017-05-23 05:56:00,
2017-05-23 02:01:00,56.1,46.4,29.96,SSE,167,0.0,1.0,70,0.00,,,0.00,meteohub,2017-05-23 06:01:00,
2017-05-23 02:06:00,56.1,46.0,29.96,SSE,167,0.0,1.0,69,0.00,,,0.00,meteohub,2017-05-23 06:06:00,
2017-05-23 02:11:00,56.1,46.0,29.95,SSE,167,0.0,0.0,69,0.00,,,0.00,meteohub,2017-05-23 06:11:00,
2017-05-23 02:17:00,56.1,46.4,29.95,SSE,167,0.0,0.0,70,0.00,,,0.00,meteohub,2017-05-23 06:17:00,
2017-05-23 02:22:00,55.9,46.8,29.95,SSE,167,0.0,0.0,71,0.00,,,0.00,meteohub,2017-05-23 06:22:00,
2017-05-23 02:27:00,55.8,46.9,29.95,SSE,167,0.0,0.0,72,0.00,,,0.00,meteohub,2017-05-23 06:27:00,
2017-05-23 02:32:00,55.4,47.7,29.95,SSE,167,0.0,0.0,75,0.00,,,0.00,meteohub,2017-05-23 06:32:00,
2017-05-23 02:37:00,55.0,47.3,29.95,SSE,167,0.0,0.0,75,0.00,,,0.00,meteohub,2017-05-23 06:37:00,
2017-05-23 02:42:00,54.7,47.7,29.95,SSE,167,0.0,0.0,77,0.00,,,0.00,meteohub,2017-05-23 06:42:00,
2017-05-23 02:47:00,54.3,47.3,29.94,SSE,167,0.0,0.0,77,0.00,,,0.00,meteohub,2017-05-23 06:47:00,
2017-05-23 02:52:00,54.0,47.3,29.94,SSE,167,0.0,0.0,78,0.00,,,0.00,meteohub,2017-05-23 06:52:00,
2017-05-23 02:57:00,53.8,47.5,29.94,SSE,167,0.0,0.0,79,0.00,,,0.00,meteohub,2017-05-23 06:57:00,
2017-05-23 03:02:00,53.4,47.1,29.94,SSE,167,0.0,0.0,79,0.00,,,0.00,meteohub,2017-05-23 07:02:00,
2017-05-23 03:07:00,53.2,47.3,29.94,SSE,167,0.0,0.0,80,0.00,,,0.00,meteohub,2017-05-23 07:07:00,
2017-05-23 03:12:00,52.9,47.3,29.93,SSE,167,0.0,0.0,81,0.00,,,0.00,meteohub,2017-05-23 07:12:00,
2017-05-23 03:17:00,52.7,47.7,29.93,SSE,167,0.0,0.0,83,0.00,,,0.00,meteohub,2017-05-23 07:17:00,
2017-05-23 03:22:00,52.5,47.1,29.93,SSE,167,0.0,0.0,82,0.00,,,0.00,meteohub,2017-05-23 07:22:00,
2017-05-23 03:27:00,52.5,46.9,29.92,SSE,167,0.0,0.0,81,0.00,,,0.00,meteohub,2017-05-23 07:27:00,
2017-05-23 03:32:00,52.5,46.9,29.92,SSE,167,0.0,0.0,81,0.00,,,0.00,meteohub,2017-05-23 07:32:00,
2017-05-23 03:37:00,52.5,46.9,29.92,SSE,167,0.0,0.0,81,0.00,,,0.00,meteohub,2017-05-23 07:37:00,
2017-05-23 03:47:00,52.7,46.8,29.91,SSE,167,0.0,0.0,80,0.00,,,0.00,meteohub,2017-05-23 07:47:00,
2017-05-23 03:52:00,52.7,46.8,29.91,SSE,167,0.0,0.0,80,0.00,,,0.00,meteohub,2017-05-23 07:52:00,
2017-05-23 03:57:00,52.7,46.8,29.91,SSE,167,0.0,0.0,80,0.00,,,0.00,meteohub,2017-05-23 07:57:00,
2017-05-23 04:02:00,52.7,46.0,29.91,SSE,167,0.0,0.0,78,0.00,,,0.00,meteohub,2017-05-23 08:02:00,
2017-05-23 04:07:00,52.7,46.0,29.91,SSE,167,0.0,0.0,78,0.00,,,0.00,meteohub,2017-05-23 08:07:00,
2017-05-23 04:12:00,52.9,46.2,29.91,SSE,167,0.0,0.0,78,0.00,,,0.00,meteohub,2017-05-23 08:12:00,
2017-05-23 04:17:00,52.9,46.2,29.90,SSE,167,0.0,0.0,78,0.00,,,0.00,meteohub,2017-05-23 08:17:00,
2017-05-23 04:22:00,52.9,46.2,29.91,SSE,167,0.0,0.0,78,0.00,,,0.00,meteohub,2017-05-23 08:22:00,
2017-05-23 04:27:00,52.9,46.2,29.91,SSE,167,0.0,0.0,78,0.00,,,0.00,meteohub,2017-05-23 08:27:00,
2017-05-23 04:32:00,52.5,46.6,29.91,SSE,167,0.0,0.0,80,0.00,,,0.00,meteohub,2017-05-23 08:32:00,
2017-05-23 04:37:00,52.5,46.9,29.91,SSE,167,0.0,0.0,81,0.00,,,0.00,meteohub,2017-05-23 08:37:00,
2017-05-23 04:42:00,52.2,46.6,29.90,SSE,167,0.0,0.0,81,0.00,,,0.00,meteohub,2017-05-23 08:42:00,
2017-05-23 04:47:00,52.0,46.6,29.90,SSE,167,0.0,0.0,82,0.00,,,0.00,meteohub,2017-05-23 08:47:00,
2017-05-23 04:52:00,51.6,46.2,29.90,SSE,167,0.0,0.0,82,0.00,,,0.00,meteohub,2017-05-23 08:52:00,
2017-05-23 04:57:00,51.6,46.6,29.89,SSE,167,0.0,0.0,83,0.00,,,0.00,meteohub,2017-05-23 08:57:00,
2017-05-23 05:02:00,51.6,46.6,29.89,SSE,167,0.0,0.0,83,0.00,,,0.00,meteohub,2017-05-23 09:02:00,
2017-05-23 05:07:00,51.6,46.6,29.88,SSE,167,0.0,0.0,83,0.00,,,0.00,meteohub,2017-05-23 09:07:00,
2017-05-23 05:12:00,51.6,46.0,29.88,SSE,167,0.0,0.0,81,0.00,,,0.00,meteohub,2017-05-23 09:12:00,
2017-05-23 05:17:00,52.0,46.4,29.88,SSE,167,0.0,0.0,81,0.00,,,0.00,meteohub,2017-05-23 09:17:00,
2017-05-23 05:22:00,52.2,46.6,29.88,SSE,167,0.0,0.0,81,0.00,,,0.00,meteohub,2017-05-23 09:22:00,
2017-05-23 05:27:00,52.2,46.2,29.88,SSE,167,0.0,0.0,80,0.00,,,0.00,meteohub,2017-05-23 09:27:00,
2017-05-23 05:32:00,52.3,46.4,29.88,SSE,167,0.0,0.0,80,0.00,,,0.00,meteohub,2017-05-23 09:32:00,
2017-05-23 05:37:00,52.3,46.4,29.88,SSE,167,0.0,0.0,80,0.00,,,0.00,meteohub,2017-05-23 09:37:00,
2017-05-23 05:42:00,52.3,46.4,29.88,SSE,167,0.0,0.0,80,0.00,,,0.00,meteohub,2017-05-23 09:42:00,
2017-05-23 05:47:00,52.5,46.6,29.88,SSE,167,0.0,0.0,80,0.00,,,0.00,meteohub,2017-05-23 09:47:00,
2017-05-23 05:52:00,52.3,46.8,29.88,SSE,167,0.0,0.0,81,0.00,,,0.00,meteohub,2017-05-23 09:52:00,
2017-05-23 05:57:00,52.3,46.8,29.88,SSE,167,0.0,0.0,81,0.00,,,0.00,meteohub,2017-05-23 09:57:00,
2017-05-23 06:02:00,52.2,46.8,29.88,SSE,167,0.0,0.0,82,0.00,,,0.00,meteohub,2017-05-23 10:02:00,
2017-05-23 06:07:00,52.0,46.9,29.88,SSE,167,0.0,0.0,83,0.00,,,0.00,meteohub,2017-05-23 10:07:00,
2017-05-23 06:12:00,51.8,46.8,29.88,SSE,167,0.0,0.0,83,0.00,,,0.00,meteohub,2017-05-23 10:12:00,
2017-05-23 06:17:00,51.6,46.9,29.87,SSE,167,0.0,0.0,84,0.00,,,0.00,meteohub,2017-05-23 10:17:00,
2017-05-23 06:22:00,51.4,47.1,29.87,SSE,167,0.0,0.0,85,0.00,,,0.00,meteohub,2017-05-23 10:22:00,
2017-05-23 06:27:00,51.3,46.9,29.87,SSE,167,0.0,0.0,85,0.00,,,0.00,meteohub,2017-05-23 10:27:00,
2017-05-23 06:32:00,51.1,47.1,29.87,SSE,167,0.0,0.0,86,0.00,,,0.00,meteohub,2017-05-23 10:32:00,
2017-05-23 06:37:00,51.1,47.1,29.87,SSE,167,0.0,0.0,86,0.00,,,0.00,meteohub,2017-05-23 10:37:00,
2017-05-23 06:42:00,51.1,47.3,29.87,SSE,167,0.0,0.0,87,0.00,,,0.00,meteohub,2017-05-23 10:42:00,
2017-05-23 06:47:00,51.1,47.3,29.88,SSE,167,0.0,0.0,87,0.00,,,0.00,meteohub,2017-05-23 10:47:00,
2017-05-23 06:52:00,51.3,47.5,29.88,SSE,167,0.0,0.0,87,0.00,,,0.00,meteohub,2017-05-23 10:52:00,
2017-05-23 06:57:00,51.4,47.7,29.88,SSE,167,0.0,0.0,87,0.00,,,0.00,meteohub,2017-05-23 10:57:00,
2017-05-23 07:02:00,51.4,47.7,29.88,SSE,167,0.0,0.0,87,0.00,,,0.00,meteohub,2017-05-23 11:02:00,
2017-05-23 07:07:00,51.4,47.7,29.88,SSE,167,0.0,0.0,87,0.00,,,0.00,meteohub,2017-05-23 11:07:00,
2017-05-23 07:12:00,51.6,48.2,29.88,SSE,167,0.0,0.0,88,0.00,,,0.00,meteohub,2017-05-23 11:12:00,
2017-05-23 07:17:00,52.0,48.6,29.89,SSE,167,0.0,0.0,88,0.00,,,0.00,meteohub,2017-05-23 11:17:00,
2017-05-23 07:22:00,52.2,48.7,29.89,SSE,167,0.0,0.0,88,0.00,,,0.00,meteohub,2017-05-23 11:22:00,
2017-05-23 07:27:00,52.5,49.5,29.89,SSE,167,0.0,0.0,89,0.00,,,0.00,meteohub,2017-05-23 11:27:00,
2017-05-23 07:32:00,52.7,49.3,29.89,SSE,167,0.0,0.0,88,0.00,,,0.00,meteohub,2017-05-23 11:32:00,
2017-05-23 07:37:00,53.1,49.8,29.90,SSE,167,0.0,0.0,89,0.00,,,0.00,meteohub,2017-05-23 11:37:00,
2017-05-23 07:42:00,53.4,49.6,29.89,SSE,167,0.0,0.0,87,0.00,,,0.00,meteohub,2017-05-23 11:42:00,
2017-05-23 07:47:00,53.6,49.5,29.89,SSE,167,0.0,0.0,86,0.00,,,0.00,meteohub,2017-05-23 11:47:00,
2017-05-23 07:52:00,54.0,49.8,29.89,SSE,167,0.0,0.0,86,0.00,,,0.00,meteohub,2017-05-23 11:52:00,
2017-05-23 07:57:00,54.1,49.8,29.89,SSE,167,0.0,0.0,85,0.00,,,0.00,meteohub,2017-05-23 11:57:00,
2017-05-23 08:02:00,54.7,50.0,29.89,SSE,167,0.0,0.0,84,0.00,,,0.00,meteohub,2017-05-23 12:02:00,
2017-05-23 08:07:00,55.0,49.6,29.88,SSE,152,0.0,3.0,82,0.00,,,0.00,meteohub,2017-05-23 12:07:00,
2017-05-23 08:12:00,55.6,49.8,29.89,SSE,150,0.0,3.0,81,0.00,,,0.00,meteohub,2017-05-23 12:12:00,
2017-05-23 08:17:00,55.9,49.8,29.89,SSE,150,1.0,3.0,80,0.00,,,0.00,meteohub,2017-05-23 12:17:00,
2017-05-23 08:22:00,56.7,50.9,29.88,SSE,150,0.0,3.0,81,0.00,,,0.00,meteohub,2017-05-23 12:22:00,
2017-05-23 08:27:00,57.4,51.3,29.88,SSE,150,0.0,2.0,80,0.00,,,0.00,meteohub,2017-05-23 12:27:00,
2017-05-23 08:32:00,58.1,51.3,29.87,South,177,0.0,2.0,78,0.00,,,0.00,meteohub,2017-05-23 12:32:00,
2017-05-23 08:37:00,59.0,51.1,29.87,SE,129,4.0,4.0,75,0.00,,,0.00,meteohub,2017-05-23 12:37:00,
2017-05-23 08:42:00,59.7,50.7,29.87,SE,134,0.0,7.0,72,0.00,,,0.00,meteohub,2017-05-23 12:42:00,
2017-05-23 08:47:00,60.3,51.3,29.87,ESE,121,0.0,7.0,72,0.00,,,0.00,meteohub,2017-05-23 12:47:00,
2017-05-23 08:52:00,60.6,50.0,29.87,SE,131,2.0,7.0,68,0.00,,,0.00,meteohub,2017-05-23 12:52:00,
2017-05-23 08:57:00,61.2,49.6,29.87,SE,140,0.0,5.0,66,0.00,,,0.00,meteohub,2017-05-23 12:57:00,
2017-05-23 09:02:00,61.5,50.0,29.86,SSW,192,0.0,8.0,66,0.00,,,0.00,meteohub,2017-05-23 13:02:00,
2017-05-23 09:07:00,61.9,50.7,29.86,ESE,114,3.0,8.0,67,0.00,,,0.00,meteohub,2017-05-23 13:07:00,
2017-05-23 09:12:00,62.1,50.5,29.86,East,86,0.0,8.0,66,0.00,,,0.00,meteohub,2017-05-23 13:12:00,
2017-05-23 09:17:00,62.2,51.1,29.85,SE,143,0.0,5.0,67,0.00,,,0.00,meteohub,2017-05-23 13:17:00,
2017-05-23 09:22:00,62.4,50.9,29.85,ESE,119,2.0,5.0,66,0.00,,,0.00,meteohub,2017-05-23 13:22:00,
2017-05-23 09:27:00,62.8,51.3,29.85,SE,125,0.0,7.0,66,0.00,,,0.00,meteohub,2017-05-23 13:27:00,
2017-05-23 09:33:00,63.0,50.2,29.85,SE,136,0.0,7.0,63,0.00,,,0.00,meteohub,2017-05-23 13:33:00,
2017-05-23 09:38:00,63.3,50.0,29.85,SE,130,3.0,7.0,62,0.00,,,0.00,meteohub,2017-05-23 13:38:00,
2017-05-23 09:43:00,63.9,50.5,29.85,South,175,2.0,7.0,62,0.00,,,0.00,meteohub,2017-05-23 13:43:00,
2017-05-23 09:48:00,64.2,50.5,29.85,SE,142,0.0,7.0,61,0.00,,,0.00,meteohub,2017-05-23 13:48:00,
2017-05-23 09:53:00,64.8,51.1,29.84,East,93,0.0,7.0,61,0.00,,,0.00,meteohub,2017-05-23 13:53:00,
2017-05-23 09:58:00,64.9,51.1,29.84,SSE,151,0.0,7.0,61,0.00,,,0.00,meteohub,2017-05-23 13:58:00,
2017-05-23 10:03:00,65.5,51.3,29.84,SSE,163,4.0,7.0,60,0.00,,,0.00,meteohub,2017-05-23 14:03:00,
2017-05-23 10:09:00,65.5,50.4,29.84,SSE,167,0.0,7.0,58,0.00,,,0.00,meteohub,2017-05-23 14:09:00,
2017-05-23 10:14:00,65.7,50.5,29.84,SSE,159,1.0,10.0,58,0.00,,,0.00,meteohub,2017-05-23 14:14:00,
2017-05-23 10:19:00,66.4,51.6,29.83,South,173,1.0,10.0,59,0.00,,,0.00,meteohub,2017-05-23 14:19:00,
2017-05-23 10:24:00,66.4,51.1,29.83,ENE,69,0.0,10.0,58,0.00,,,0.00,meteohub,2017-05-23 14:24:00,
2017-05-23 10:29:00,66.6,51.8,29.83,SW,214,0.0,8.0,59,0.00,,,0.00,meteohub,2017-05-23 14:29:00,
2017-05-23 10:34:00,66.6,50.4,29.83,NE,49,1.0,8.0,56,0.00,,,0.00,meteohub,2017-05-23 14:34:00,
2017-05-23 10:40:00,66.0,49.8,29.83,ENE,63,0.0,5.0,56,0.00,,,0.00,meteohub,2017-05-23 14:40:00,
2017-05-23 10:45:00,65.8,49.6,29.82,East,96,0.0,5.0,56,0.00,,,0.00,meteohub,2017-05-23 14:45:00,
2017-05-23 10:50:00,65.7,50.0,29.82,ENE,72,1.0,5.0,57,0.00,,,0.00,meteohub,2017-05-23 14:50:00,
2017-05-23 10:55:00,65.7,50.0,29.82,South,173,0.0,5.0,57,0.00,,,0.00,meteohub,2017-05-23 14:55:00,
2017-05-23 11:00:00,65.8,49.6,29.83,NE,44,2.0,6.0,56,0.00,,,0.00,meteohub,2017-05-23 15:00:00,
2017-05-23 11:05:00,65.8,50.2,29.82,East,101,0.0,6.0,57,0.00,,,0.00,meteohub,2017-05-23 15:05:00,
2017-05-23 11:11:00,65.8,49.6,29.82,South,172,0.0,6.0,56,0.00,,,0.00,meteohub,2017-05-23 15:11:00,
2017-05-23 11:16:00,66.4,50.2,29.81,SE,143,4.0,5.0,56,0.00,,,0.00,meteohub,2017-05-23 15:16:00,
2017-05-23 11:21:00,66.6,49.8,29.81,SSE,153,1.0,5.0,55,0.00,,,0.00,meteohub,2017-05-23 15:21:00,
2017-05-23 11:26:00,66.9,50.2,29.80,SSE,147,0.0,9.0,55,0.00,,,0.00,meteohub,2017-05-23 15:26:00,
2017-05-23 11:31:00,67.3,50.5,29.80,ESE,119,0.0,10.0,55,0.00,,,0.00,meteohub,2017-05-23 15:31:00,
2017-05-23 11:36:00,67.6,50.9,29.79,ESE,120,0.0,10.0,55,0.00,,,0.00,meteohub,2017-05-23 15:36:00,
2017-05-23 11:41:00,67.8,51.6,29.80,ESE,115,0.0,7.0,56,0.00,,,0.00,meteohub,2017-05-23 15:41:00,
2017-05-23 11:42:00,67.8,52.0,29.80,ENE,63,1.0,7.0,57,0.00,,,0.00,meteohub,2017-05-23 15:42:00,
2017-05-23 11:48:00,68.2,50.4,29.79,SE,136,1.0,5.0,53,0.00,,,0.00,meteohub,2017-05-23 15:48:00,
2017-05-23 11:53:00,68.2,51.4,29.79,East,101,0.0,5.0,55,0.00,,,0.00,meteohub,2017-05-23 15:53:00,
2017-05-23 11:58:00,68.2,50.4,29.79,NE,55,0.0,5.0,53,0.00,,,0.00,meteohub,2017-05-23 15:58:00,
2017-05-23 12:03:00,68.2,51.8,29.79,East,85,0.0,5.0,56,0.00,,,0.00,meteohub,2017-05-23 16:03:00,
2017-05-23 12:08:00,68.2,51.4,29.79,ENE,58,1.0,6.0,55,0.00,,,0.00,meteohub,2017-05-23 16:08:00,
2017-05-23 12:13:00,68.0,51.3,29.78,North,355,0.0,6.0,55,0.00,,,0.00,meteohub,2017-05-23 16:13:00,
2017-05-23 12:19:00,68.4,52.0,29.78,ENE,57,1.0,4.0,56,0.00,,,0.00,meteohub,2017-05-23 16:19:00,
2017-05-23 12:24:00,68.5,51.8,29.78,SE,145,0.0,6.0,55,0.00,,,0.00,meteohub,2017-05-23 16:24:00,
2017-05-23 12:29:00,68.7,50.9,29.78,East,80,1.0,6.0,53,0.00,,,0.00,meteohub,2017-05-23 16:29:00,
2017-05-23 12:34:00,69.3,51.4,29.77,SE,137,0.0,6.0,53,0.00,,,0.00,meteohub,2017-05-23 16:34:00,
2017-05-23 12:39:00,69.4,52.5,29.77,ENE,71,4.0,4.0,55,0.00,,,0.00,meteohub,2017-05-23 16:39:00,
2017-05-23 12:44:00,69.4,51.1,29.77,ENE,63,0.0,4.0,52,0.00,,,0.00,meteohub,2017-05-23 16:44:00,
2017-05-23 12:50:00,69.4,51.1,29.77,SE,132,1.0,4.0,52,0.00,,,0.00,meteohub,2017-05-23 16:50:00,
2017-05-23 12:55:00,69.6,50.2,29.77,SSW,192,0.0,4.0,50,0.00,,,0.00,meteohub,2017-05-23 16:55:00,
2017-05-23 13:00:00,70.0,50.5,29.77,NE,46,1.0,4.0,50,0.00,,,0.00,meteohub,2017-05-23 17:00:00,
2017-05-23 13:05:00,70.3,49.1,29.77,SSE,158,0.0,4.0,47,0.00,,,0.00,meteohub,2017-05-23 17:05:00,
2017-05-23 13:10:00,71.1,51.4,29.77,ENE,57,3.0,6.0,50,0.00,,,0.00,meteohub,2017-05-23 17:10:00,
2017-05-23 13:15:00,71.2,50.0,29.75,SSW,193,0.0,6.0,47,0.00,,,0.00,meteohub,2017-05-23 17:15:00,
2017-05-23 13:20:00,71.6,50.9,29.75,SE,138,1.0,3.0,48,0.00,,,0.00,meteohub,2017-05-23 17:20:00,
2017-05-23 13:26:00,71.8,49.8,29.75,ENE,60,1.0,5.0,46,0.00,,,0.00,meteohub,2017-05-23 17:26:00,
2017-05-23 13:31:00,71.4,50.7,29.75,NE,56,1.0,7.0,48,0.00,,,0.00,meteohub,2017-05-23 17:31:00,
2017-05-23 13:36:00,71.2,51.6,29.75,SE,143,0.0,7.0,50,0.00,,,0.00,meteohub,2017-05-23 17:36:00,
2017-05-23 13:41:00,71.2,50.5,29.75,SE,139,0.0,5.0,48,0.00,,,0.00,meteohub,2017-05-23 17:41:00,
2017-05-23 13:46:00,71.4,50.7,29.74,East,97,0.0,5.0,48,0.00,,,0.00,meteohub,2017-05-23 17:46:00,
2017-05-23 13:51:00,71.6,50.4,29.74,ENE,63,3.0,4.0,47,0.00,,,0.00,meteohub,2017-05-23 17:51:00,
2017-05-23 13:56:00,71.6,50.9,29.73,NE,43,1.0,4.0,48,0.00,,,0.00,meteohub,2017-05-23 17:56:00,
2017-05-23 14:02:00,71.8,51.6,29.73,ENE,78,1.0,7.0,49,0.00,,,0.00,meteohub,2017-05-23 18:02:00,
2017-05-23 14:07:00,72.0,51.8,29.73,SE,136,0.0,7.0,49,0.00,,,0.00,meteohub,2017-05-23 18:07:00,
2017-05-23 14:12:00,72.5,50.5,29.73,SE,140,4.0,7.0,46,0.00,,,0.00,meteohub,2017-05-23 18:12:00,
2017-05-23 14:17:00,72.7,48.2,29.73,ENE,62,0.0,7.0,42,0.00,,,0.00,meteohub,2017-05-23 18:17:00,
2017-05-23 14:22:00,73.0,50.4,29.73,ENE,68,0.0,7.0,45,0.00,,,0.00,meteohub,2017-05-23 18:22:00,
2017-05-23 14:27:00,72.9,52.0,29.73,ESE,115,0.0,7.0,48,0.00,,,0.00,meteohub,2017-05-23 18:27:00,
2017-05-23 14:32:00,73.4,50.7,29.72,East,101,0.0,6.0,45,0.00,,,0.00,meteohub,2017-05-23 18:32:00,
2017-05-23 14:37:00,73.6,52.2,29.72,ESE,117,0.0,3.0,47,0.00,,,0.00,meteohub,2017-05-23 18:37:00,
2017-05-23 14:42:00,73.9,51.3,29.72,NE,40,2.0,5.0,45,0.00,,,0.00,meteohub,2017-05-23 18:42:00,
2017-05-23 14:47:00,73.8,51.1,29.71,NE,41,4.0,5.0,45,0.00,,,0.00,meteohub,2017-05-23 18:47:00,
2017-05-23 14:52:00,73.8,50.5,29.71,ENE,73,1.0,7.0,44,0.00,,,0.00,meteohub,2017-05-23 18:52:00,
2017-05-23 14:57:00,73.8,51.1,29.71,SSW,194,2.0,7.0,45,0.00,,,0.00,meteohub,2017-05-23 18:57:00,
2017-05-23 15:02:00,73.9,49.5,29.70,NE,40,2.0,7.0,42,0.00,,,0.00,meteohub,2017-05-23 19:02:00,
2017-05-23 15:07:00,73.6,49.6,29.70,South,175,0.0,7.0,43,0.00,,,0.00,meteohub,2017-05-23 19:07:00,
2017-05-23 15:12:00,73.6,50.4,29.70,SSE,163,0.0,8.0,44,0.00,,,0.00,meteohub,2017-05-23 19:12:00,
2017-05-23 15:17:00,73.8,49.8,29.70,ESE,120,2.0,8.0,43,0.00,,,0.00,meteohub,2017-05-23 19:17:00,
2017-05-23 15:22:00,73.8,51.6,29.70,ENE,63,1.0,8.0,46,0.00,,,0.00,meteohub,2017-05-23 19:22:00,
2017-05-23 15:27:00,73.2,49.5,29.69,NE,34,0.0,6.0,43,0.00,,,0.00,meteohub,2017-05-23 19:27:00,
2017-05-23 15:32:00,73.2,51.8,29.68,North,11,1.0,6.0,47,0.00,,,0.00,meteohub,2017-05-23 19:32:00,
2017-05-23 15:37:00,73.0,49.3,29.68,NE,53,1.0,4.0,43,0.00,,,0.00,meteohub,2017-05-23 19:37:00,
2017-05-23 15:42:00,73.0,49.8,29.68,ENE,69,1.0,4.0,44,0.00,,,0.00,meteohub,2017-05-23 19:42:00,
2017-05-23 15:47:00,73.0,49.8,29.68,SE,144,1.0,4.0,44,0.00,,,0.00,meteohub,2017-05-23 19:47:00,
2017-05-23 15:52:00,73.6,47.1,29.68,South,188,0.0,6.0,39,0.00,,,0.00,meteohub,2017-05-23 19:52:00,
2017-05-23 15:57:00,73.9,48.7,29.68,South,175,2.0,6.0,41,0.00,,,0.00,meteohub,2017-05-23 19:57:00,
2017-05-23 16:02:00,74.3,49.1,29.68,SW,228,0.0,6.0,41,0.00,,,0.00,meteohub,2017-05-23 20:02:00,
2017-05-23 16:07:00,74.5,49.8,29.68,SE,125,0.0,5.0,42,0.00,,,0.00,meteohub,2017-05-23 20:07:00,
2017-05-23 16:12:00,74.1,50.9,29.68,SSE,150,1.0,6.0,44,0.00,,,0.00,meteohub,2017-05-23 20:12:00,
2017-05-23 16:17:00,74.1,48.9,29.68,South,170,1.0,6.0,41,0.00,,,0.00,meteohub,2017-05-23 20:17:00,
2017-05-23 16:22:00,73.9,49.5,29.67,South,179,3.0,6.0,42,0.00,,,0.00,meteohub,2017-05-23 20:22:00,
2017-05-23 16:27:00,74.1,49.6,29.67,South,171,1.0,4.0,42,0.00,,,0.00,meteohub,2017-05-23 20:27:00,
2017-05-23 16:32:00,74.1,48.2,29.67,SE,134,1.0,4.0,40,0.00,,,0.00,meteohub,2017-05-23 20:32:00,
2017-05-23 16:37:00,73.9,48.7,29.67,South,185,2.0,4.0,41,0.00,,,0.00,meteohub,2017-05-23 20:37:00,
2017-05-23 16:47:00,74.1,49.6,29.67,SW,231,3.0,4.0,42,0.00,,,0.00,meteohub,2017-05-23 20:47:00,
2017-05-23 16:52:00,74.5,49.8,29.67,SW,232,0.0,4.0,42,0.00,,,0.00,meteohub,2017-05-23 20:52:00,
2017-05-23 16:57:00,74.5,49.3,29.66,SW,232,0.0,4.0,41,0.00,,,0.00,meteohub,2017-05-23 20:57:00,
2017-05-23 17:02:00,74.5,50.5,29.66,SW,232,1.0,4.0,43,0.00,,,0.00,meteohub,2017-05-23 21:02:00,
2017-05-23 17:07:00,73.8,48.6,29.66,SW,235,0.0,2.0,41,0.00,,,0.00,meteohub,2017-05-23 21:07:00,
2017-05-23 17:12:00,73.6,50.9,29.66,SE,129,0.0,2.0,45,0.00,,,0.00,meteohub,2017-05-23 21:12:00,
2017-05-23 17:17:00,73.4,48.9,29.66,SE,128,0.0,4.0,42,0.00,,,0.00,meteohub,2017-05-23 21:17:00,
2017-05-23 17:22:00,73.2,50.5,29.66,SE,129,0.0,4.0,45,0.00,,,0.00,meteohub,2017-05-23 21:22:00,
2017-05-23 17:27:00,73.0,48.6,29.66,SE,128,0.0,0.0,42,0.00,,,0.00,meteohub,2017-05-23 21:27:00,
2017-05-23 17:32:00,72.9,49.6,29.66,SE,128,0.0,0.0,44,0.00,,,0.00,meteohub,2017-05-23 21:32:00,
2017-05-23 17:37:00,72.7,48.9,29.66,SE,128,0.0,0.0,43,0.00,,,0.00,meteohub,2017-05-23 21:37:00,
2017-05-23 17:43:00,72.7,48.2,29.66,SE,139,0.0,0.0,42,0.00,,,0.00,meteohub,2017-05-23 21:43:00,
2017-05-23 17:48:00,72.9,47.8,29.66,SE,142,0.0,1.0,41,0.00,,,0.00,meteohub,2017-05-23 21:48:00,
2017-05-23 17:53:00,73.0,50.4,29.66,SE,142,0.0,1.0,45,0.00,,,0.00,meteohub,2017-05-23 21:53:00,
2017-05-23 17:58:00,73.0,47.3,29.66,SE,142,0.0,1.0,40,0.00,,,0.00,meteohub,2017-05-23 21:58:00,
2017-05-23 18:03:00,73.2,48.0,29.65,SE,142,0.0,1.0,41,0.00,,,0.00,meteohub,2017-05-23 22:03:00,
2017-05-23 18:08:00,73.6,47.8,29.65,SSE,153,0.0,1.0,40,0.00,,,0.00,meteohub,2017-05-23 22:08:00,
2017-05-23 18:13:00,73.6,47.8,29.65,SSE,153,0.0,3.0,40,0.00,,,0.00,meteohub,2017-05-23 22:13:00,
2017-05-23 18:19:00,73.6,49.1,29.65,SSE,153,0.0,3.0,42,0.00,,,0.00,meteohub,2017-05-23 22:19:00,
2017-05-23 18:24:00,73.8,47.3,29.65,SSE,153,0.0,3.0,39,0.00,,,0.00,meteohub,2017-05-23 22:24:00,
2017-05-23 18:29:00,73.9,48.7,29.65,SSE,153,0.0,1.0,41,0.00,,,0.00,meteohub,2017-05-23 22:29:00,
2017-05-23 18:34:00,73.8,47.3,29.65,SSE,161,0.0,1.0,39,0.00,,,0.00,meteohub,2017-05-23 22:34:00,
2017-05-23 18:39:00,73.9,51.3,29.65,SSE,161,0.0,1.0,45,0.00,,,0.00,meteohub,2017-05-23 22:39:00,
2017-05-23 18:44:00,73.9,48.7,29.64,SSE,163,0.0,1.0,41,0.00,,,0.00,meteohub,2017-05-23 22:44:00,
2017-05-23 18:49:00,73.8,48.0,29.64,SSE,164,0.0,1.0,40,0.00,,,0.00,meteohub,2017-05-23 22:49:00,
2017-05-23 18:55:00,73.6,49.1,29.64,South,180,0.0,1.0,42,0.00,,,0.00,meteohub,2017-05-23 22:55:00,
2017-05-23 19:00:00,73.6,47.8,29.64,SSE,151,0.0,1.0,40,0.00,,,0.00,meteohub,2017-05-23 23:00:00,
2017-05-23 19:05:00,73.6,49.1,29.64,SSE,151,0.0,2.0,42,0.00,,,0.00,meteohub,2017-05-23 23:05:00,
2017-05-23 19:10:00,73.4,48.2,29.64,South,181,3.0,3.0,41,0.00,,,0.00,meteohub,2017-05-23 23:10:00,
2017-05-23 19:15:00,73.2,48.7,29.63,South,186,0.0,3.0,42,0.00,,,0.00,meteohub,2017-05-23 23:15:00,
2017-05-23 19:21:00,73.2,47.5,29.63,SSW,202,0.0,3.0,40,0.00,,,0.00,meteohub,2017-05-23 23:21:00,
2017-05-23 19:24:00,73.0,48.0,29.63,SSW,202,0.0,3.0,41,0.00,,,0.00,meteohub,2017-05-23 23:24:00,
2017-05-23 19:29:00,72.9,47.1,29.63,SSW,202,0.0,3.0,40,0.00,,,0.00,meteohub,2017-05-23 23:29:00,
2017-05-23 19:34:00,72.7,48.2,29.63,SSW,202,0.0,2.0,42,0.00,,,0.00,meteohub,2017-05-23 23:34:00,
2017-05-23 19:39:00,72.5,49.3,29.63,SSW,202,0.0,2.0,44,0.00,,,0.00,meteohub,2017-05-23 23:39:00,
2017-05-23 19:44:00,72.1,47.8,29.63,SSW,200,0.0,2.0,42,0.00,,,0.00,meteohub,2017-05-23 23:44:00,
2017-05-23 19:49:00,72.0,48.2,29.63,SSW,200,0.0,2.0,43,0.00,,,0.00,meteohub,2017-05-23 23:49:00,
2017-05-23 19:55:00,71.8,47.5,29.64,SSW,200,0.0,2.0,42,0.00,,,0.00,meteohub,2017-05-23 23:55:00,
2017-05-23 20:00:00,71.8,51.1,29.64,SSW,200,0.0,2.0,48,0.00,,,0.00,meteohub,2017-05-24 00:00:00,
2017-05-23 20:05:00,71.4,48.9,29.64,SSW,200,0.0,0.0,45,0.00,,,0.00,meteohub,2017-05-24 00:05:00,
2017-05-23 20:10:00,71.2,49.5,29.64,SSW,200,0.0,0.0,46,0.00,,,0.00,meteohub,2017-05-24 00:10:00,
2017-05-23 20:15:00,71.1,49.8,29.63,SSW,200,0.0,0.0,47,0.00,,,0.00,meteohub,2017-05-24 00:15:00,
2017-05-23 20:20:00,70.9,50.2,29.64,SSW,200,0.0,0.0,48,0.00,,,0.00,meteohub,2017-05-24 00:20:00,
2017-05-23 20:26:00,70.5,50.9,29.64,SSW,200,0.0,0.0,50,0.00,,,0.00,meteohub,2017-05-24 00:26:00,
2017-05-23 20:31:00,70.3,50.4,29.64,SSW,199,0.0,1.0,49,0.00,,,0.00,meteohub,2017-05-24 00:31:00,
2017-05-23 20:36:00,70.0,50.5,29.63,SSE,154,0.0,3.0,50,0.00,,,0.00,meteohub,2017-05-24 00:36:00,
2017-05-23 20:41:00,69.8,50.9,29.64,SSE,159,0.0,3.0,51,0.00,,,0.00,meteohub,2017-05-24 00:41:00,
2017-05-23 20:46:00,69.6,50.7,29.64,SSE,162,0.0,3.0,51,0.00,,,0.00,meteohub,2017-05-24 00:46:00,
2017-05-23 20:51:00,69.4,51.6,29.64,SSE,162,0.0,1.0,53,0.00,,,0.00,meteohub,2017-05-24 00:51:00,
2017-05-23 20:57:00,69.3,52.0,29.63,SE,132,2.0,0.0,54,0.00,,,0.00,meteohub,2017-05-24 00:57:00,
2017-05-23 21:02:00,68.9,52.0,29.63,ESE,119,0.0,4.0,55,0.00,,,0.00,meteohub,2017-05-24 01:02:00,
2017-05-23 21:07:00,68.7,52.3,29.62,ESE,119,0.0,4.0,56,0.00,,,0.00,meteohub,2017-05-24 01:07:00,
2017-05-23 21:12:00,68.5,52.7,29.62,SE,124,0.0,4.0,57,0.00,,,0.00,meteohub,2017-05-24 01:12:00,
2017-05-23 21:17:00,68.4,52.5,29.62,SE,127,0.0,2.0,57,0.00,,,0.00,meteohub,2017-05-24 01:17:00,
2017-05-23 21:22:00,68.2,52.9,29.62,SE,126,0.0,3.0,58,0.00,,,0.00,meteohub,2017-05-24 01:22:00,
2017-05-23 21:27:00,67.8,52.9,29.62,SE,127,1.0,3.0,59,0.00,,,0.00,meteohub,2017-05-24 01:27:00,
2017-05-23 21:32:00,67.6,52.9,29.62,SE,130,0.0,3.0,59,0.00,,,0.00,meteohub,2017-05-24 01:32:00,
2017-05-23 21:37:00,67.5,53.1,29.62,SE,132,0.0,2.0,60,0.00,,,0.00,meteohub,2017-05-24 01:37:00,
2017-05-23 21:42:00,67.5,53.1,29.62,SE,142,0.0,3.0,60,0.00,,,0.00,meteohub,2017-05-24 01:42:00,
2017-05-23 21:47:00,67.3,53.4,29.62,SE,140,0.0,3.0,61,0.00,,,0.00,meteohub,2017-05-24 01:47:00,
2017-05-23 21:52:00,67.1,53.6,29.62,ESE,120,0.0,3.0,62,0.00,,,0.00,meteohub,2017-05-24 01:52:00,
2017-05-23 21:57:00,66.9,53.4,29.62,ESE,112,0.0,1.0,62,0.00,,,0.00,meteohub,2017-05-24 01:57:00,
2017-05-23 22:02:00,66.7,53.8,29.63,ESE,112,0.0,1.0,63,0.00,,,0.00,meteohub,2017-05-24 02:02:00,
2017-05-23 22:07:00,66.6,53.6,29.63,ESE,109,0.0,1.0,63,0.00,,,0.00,meteohub,2017-05-24 02:07:00,
2017-05-23 22:12:00,66.4,53.8,29.63,ESE,109,0.0,1.0,64,0.00,,,0.00,meteohub,2017-05-24 02:12:00,
2017-05-23 22:17:00,66.2,53.6,29.62,ESE,109,0.0,1.0,64,0.00,,,0.00,meteohub,2017-05-24 02:17:00,
2017-05-23 22:22:00,66.0,53.4,29.62,ESE,109,0.0,0.0,64,0.00,,,0.00,meteohub,2017-05-24 02:22:00,
2017-05-23 22:27:00,65.8,53.8,29.62,SE,130,0.0,2.0,65,0.00,,,0.00,meteohub,2017-05-24 02:27:00,
2017-05-23 22:32:00,65.8,53.8,29.63,SE,130,0.0,2.0,65,0.00,,,0.00,meteohub,2017-05-24 02:32:00,
2017-05-23 22:37:00,65.8,53.8,29.63,SE,130,0.0,2.0,65,0.00,,,0.00,meteohub,2017-05-24 02:37:00,
2017-05-23 22:42:00,65.8,54.1,29.63,SE,130,0.0,1.0,66,0.00,,,0.00,meteohub,2017-05-24 02:42:00,
2017-05-23 22:47:00,65.7,54.0,29.63,SSE,157,0.0,2.0,66,0.00,,,0.00,meteohub,2017-05-24 02:47:00,